createdAt,value
2022-09-23T00:01:57.815Z,100797.59
2022-09-23T00:05:12.177Z,100801.06
2022-09-23T00:08:20.171Z,100800.25
2022-09-23T00:11:36.164Z,100799.97
2022-09-23T00:14:51.145Z,100807.47
2022-09-23T00:17:59.181Z,100808.28
2022-09-23T00:21:11.382Z,100806.94
2022-09-23T00:24:19.168Z,100799.19
2022-09-23T00:27:29.051Z,100801.84
2022-09-23T00:30:37.196Z,100799.41
2022-09-23T00:33:52.224Z,100795.44
2022-09-23T00:37:07.172Z,100797.28
2022-09-23T00:40:16.200Z,100793.78
2022-09-23T00:43:58.166Z,100792.72
2022-09-23T00:47:21.178Z,100791.66
2022-09-23T00:50:36.183Z,100782.00
2022-09-23T00:53:59.233Z,100786.31
2022-09-23T00:57:15.159Z,100781.47
2022-09-23T01:00:30.156Z,100780.94
2022-09-23T01:03:38.735Z,100779.06
2022-09-23T01:06:47.160Z,100778.78
2022-09-23T01:09:57.024Z,100780.91
2022-09-23T01:13:23.163Z,100786.81
2022-09-23T01:16:47.209Z,100793.72
2022-09-23T01:20:35.150Z,100794.25
2022-09-23T01:24:15.388Z,100794.25
2022-09-23T01:27:34.160Z,100790.75
2022-09-23T01:31:29.955Z,100787.53
2022-09-23T01:34:54.169Z,100792.06
2022-09-23T01:38:20.544Z,100795.28
2022-09-23T01:42:08.168Z,100789.94
2022-09-23T01:45:31.424Z,100787.81
2022-09-23T01:48:59.263Z,100777.09
2022-09-23T01:52:22.238Z,100778.72
2022-09-23T01:55:40.154Z,100778.41
2022-09-23T01:59:23.265Z,100785.34
2022-09-23T02:02:41.246Z,100778.94
2022-09-23T02:06:15.168Z,100776.53
2022-09-23T02:09:28.943Z,100768.50
2022-09-23T02:12:42.148Z,100775.75
2022-09-23T02:16:02.163Z,100774.66
2022-09-23T02:19:13.339Z,100776.78
2022-09-23T02:22:35.193Z,100766.59
2022-09-23T02:26:05.896Z,100776.50
2022-09-23T02:29:26.163Z,100772.50
2022-09-23T02:33:01.173Z,100779.97
2022-09-23T02:36:25.159Z,100772.72
2022-09-23T02:39:48.174Z,100769.25
2022-09-23T02:43:32.172Z,100770.03
2022-09-23T02:46:34.470Z,100768.13
2022-09-23T02:49:49.161Z,100769.72
2022-09-23T02:52:50.947Z,100772.69
2022-09-23T02:56:07.173Z,100775.03
2022-09-23T02:59:16.171Z,100775.87
2022-09-23T03:03:15.934Z,100775.63
2022-09-23T03:06:44.173Z,100779.37
2022-09-23T03:10:14.158Z,100780.16
2022-09-23T03:13:45.201Z,100769.16
2022-09-23T03:17:09.155Z,100768.13
2022-09-23T03:20:29.173Z,100772.66
2022-09-23T03:23:40.604Z,100779.06
2022-09-23T03:26:53.156Z,100777.19
2022-09-23T03:30:03.544Z,100773.19
2022-09-23T03:33:21.205Z,100771.59
2022-09-23T03:36:47.155Z,100771.59
2022-09-23T03:40:01.745Z,100778.22
2022-09-23T03:43:17.163Z,100776.59
2022-09-23T03:46:27.057Z,100776.84
2022-09-23T03:49:45.159Z,100777.84
2022-09-23T03:52:54.055Z,100784.22
2022-09-23T03:56:16.180Z,100777.81
2022-09-23T03:59:24.180Z,100778.12
2022-09-23T04:02:33.096Z,100769.34
2022-09-23T04:05:41.176Z,100774.91
2022-09-23T04:08:49.693Z,100774.41
2022-09-23T04:11:59.180Z,100781.00
2022-09-23T04:15:07.991Z,100785.59
2022-09-23T04:18:23.199Z,100786.94
2022-09-23T04:21:31.189Z,100782.91
2022-09-23T04:24:39.797Z,100790.94
2022-09-23T04:27:54.170Z,100790.66
2022-09-23T04:30:55.946Z,100788.22
2022-09-23T04:34:11.176Z,100788.97
2022-09-23T04:37:26.228Z,100797.50
2022-09-23T04:40:36.487Z,100788.66
2022-09-23T04:43:52.176Z,100786.50
2022-09-23T04:47:00.768Z,100799.31
2022-09-23T04:50:09.189Z,100791.00
2022-09-23T04:53:24.160Z,100794.44
2022-09-23T04:56:32.427Z,100782.16
2022-09-23T04:59:47.175Z,100792.84
2022-09-23T05:02:55.697Z,100799.00
2022-09-23T05:06:05.182Z,100791.53
2022-09-23T05:09:16.411Z,100801.97
2022-09-23T05:12:31.178Z,100806.50
2022-09-23T05:15:39.192Z,100814.84
2022-09-23T05:18:55.151Z,100817.06
2022-09-23T05:22:10.186Z,100815.72
2022-09-23T05:25:18.166Z,100811.22
2022-09-23T05:28:27.958Z,100822.22
2022-09-23T05:31:37.222Z,100821.94
2022-09-23T05:34:45.645Z,100826.56
2022-09-23T05:38:00.178Z,100826.31
2022-09-23T05:41:12.158Z,100826.34
2022-09-23T05:44:27.200Z,100836.03
2022-09-23T05:47:42.368Z,100839.00
2022-09-23T05:50:58.218Z,100827.31
2022-09-23T05:54:13.396Z,100827.88
2022-09-23T05:57:28.660Z,100819.63
2022-09-23T06:00:39.309Z,100832.75
2022-09-23T06:03:58.019Z,100829.81
2022-09-23T06:07:14.144Z,100829.06
2022-09-23T06:10:29.174Z,100826.69
2022-09-23T06:13:30.875Z,100837.13
2022-09-23T06:16:45.338Z,100830.19
2022-09-23T06:19:54.346Z,100831.00
2022-09-23T06:23:10.681Z,100831.28
2022-09-23T06:26:18.881Z,100835.03
2022-09-23T06:29:27.164Z,100838.50
2022-09-23T06:32:42.157Z,100832.38
2022-09-23T06:35:58.588Z,100835.59
2022-09-23T06:39:14.229Z,100837.47
2022-09-23T06:42:16.622Z,100841.75
2022-09-23T06:45:32.148Z,100838.25
2022-09-23T06:48:45.932Z,100843.56
2022-09-23T06:52:01.149Z,100843.56
2022-09-23T06:55:16.174Z,100854.81
2022-09-23T06:58:24.223Z,100851.28
2022-09-23T07:01:39.319Z,100856.38
2022-09-23T07:04:47.702Z,100854.72
2022-09-23T07:07:56.163Z,100845.53
2022-09-23T07:11:07.090Z,100844.41
2022-09-23T07:14:15.204Z,100845.38
2022-09-23T07:17:24.447Z,100847.75
2022-09-23T07:20:39.163Z,100852.50
2022-09-23T07:23:52.204Z,100854.19
2022-09-23T07:27:00.678Z,100855.81
2022-09-23T07:30:23.196Z,100856.34
2022-09-23T07:33:32.097Z,100859.47
2022-09-23T07:36:47.159Z,100851.00
2022-09-23T07:39:55.172Z,100855.78
2022-09-23T07:43:03.766Z,100860.78
2022-09-23T07:46:16.264Z,100861.94
2022-09-23T07:49:25.950Z,100859.66
2022-09-23T07:52:45.175Z,100856.22
2022-09-23T07:56:01.179Z,100854.59
2022-09-23T07:59:14.418Z,100857.87
2022-09-23T08:02:29.199Z,100851.09
2022-09-23T08:05:37.755Z,100854.00
2022-09-23T08:08:50.003Z,100859.38
2022-09-23T08:12:12.732Z,100852.41
2022-09-23T08:15:23.733Z,100853.47
2022-09-23T08:18:33.181Z,100851.72
2022-09-23T08:21:42.420Z,100844.22
2022-09-23T08:24:52.843Z,100848.84
2022-09-23T08:28:09.172Z,100841.97
2022-09-23T08:31:17.720Z,100839.94
2022-09-23T08:34:34.163Z,100844.75
2022-09-23T08:38:01.305Z,100844.53
2022-09-23T08:41:23.166Z,100837.50
2022-09-23T08:44:44.174Z,100833.28
2022-09-23T08:48:00.254Z,100837.00
2022-09-23T08:51:21.226Z,100832.50
2022-09-23T08:54:26.686Z,100827.19
2022-09-23T08:58:14.007Z,100832.50
2022-09-23T09:01:52.275Z,100834.56
2022-09-23T09:05:05.995Z,100822.78
2022-09-23T09:08:25.175Z,100832.63
2022-09-23T09:11:38.574Z,100831.84
2022-09-23T09:14:54.197Z,100837.28
2022-09-23T09:18:19.184Z,100837.06
2022-09-23T09:21:39.883Z,100831.47
2022-09-23T09:24:51.177Z,100834.56
2022-09-23T09:28:36.189Z,100833.22
2022-09-23T09:31:53.186Z,100833.03
2022-09-23T09:35:22.170Z,100833.22
2022-09-23T09:38:30.787Z,100826.91
2022-09-23T09:41:39.170Z,100830.50
2022-09-23T09:44:59.185Z,100819.69
2022-09-23T09:48:42.167Z,100824.38
2022-09-23T09:51:43.952Z,100820.47
2022-09-23T09:54:59.130Z,100817.94
2022-09-23T09:58:13.857Z,100808.62
2022-09-23T10:01:26.131Z,100813.94
2022-09-23T10:04:42.143Z,100802.50
2022-09-23T10:07:57.153Z,100804.06
2022-09-23T10:10:58.855Z,100795.91
2022-09-23T10:14:24.175Z,100797.31
2022-09-23T10:17:32.040Z,100791.72
2022-09-23T10:20:47.109Z,100789.94
2022-09-23T10:24:05.144Z,100790.28
2022-09-23T10:27:16.108Z,100791.03
2022-09-23T10:30:33.159Z,100787.34
2022-09-23T10:33:47.831Z,100787.09
2022-09-23T10:37:09.220Z,100779.03
2022-09-23T10:40:26.138Z,100786.00
2022-09-23T10:43:59.818Z,100783.09
2022-09-23T10:47:14.153Z,100771.88
2022-09-23T10:50:35.158Z,100773.56
2022-09-23T10:54:06.002Z,100775.56
2022-09-23T10:58:07.145Z,100769.13
2022-09-23T11:01:43.174Z,100778.69
2022-09-23T11:05:13.395Z,100776.34
2022-09-23T11:08:31.159Z,100769.13
2022-09-23T11:11:52.915Z,100762.00
2022-09-23T11:15:07.157Z,100767.59
2022-09-23T11:18:47.146Z,100763.16
2022-09-23T11:22:19.183Z,100753.44
2022-09-23T11:25:52.189Z,100750.75
2022-09-23T11:29:29.158Z,100751.31
2022-09-23T11:33:04.195Z,100743.44
2022-09-23T11:36:18.195Z,100741.66
2022-09-23T11:39:37.172Z,100728.63
2022-09-23T11:42:54.427Z,100728.47
2022-09-23T11:46:32.160Z,100722.81
2022-09-23T11:49:53.159Z,100712.56
2022-09-23T11:53:17.345Z,100717.50
2022-09-23T11:56:50.148Z,100707.81
2022-09-23T12:00:19.186Z,100708.66
2022-09-23T12:03:40.182Z,100711.09
2022-09-23T12:07:17.200Z,100718.06
2022-09-23T12:10:19.692Z,100710.72
2022-09-23T12:13:49.207Z,100704.34
2022-09-23T12:17:13.146Z,100709.28
2022-09-23T12:20:36.324Z,100693.91
2022-09-23T12:24:00.246Z,100692.81
2022-09-23T12:27:23.193Z,100696.47
2022-09-23T12:30:36.582Z,100685.66
2022-09-23T12:34:00.318Z,100690.63
2022-09-23T12:37:08.696Z,100681.25
2022-09-23T12:40:43.317Z,100676.63
2022-09-23T12:44:28.190Z,100670.84
2022-09-23T12:47:40.036Z,100662.59
2022-09-23T12:51:12.308Z,100667.91
2022-09-23T12:54:24.387Z,100667.50
2022-09-23T12:57:47.209Z,100655.16
2022-09-23T13:01:07.173Z,100656.91
2022-09-23T13:04:38.223Z,100650.56
2022-09-23T13:07:47.052Z,100648.34
2022-09-23T13:11:07.188Z,100643.94
2022-09-23T13:14:22.848Z,100638.31
2022-09-23T13:17:39.400Z,100638.31
2022-09-23T13:20:56.196Z,100633.91
2022-09-23T13:24:34.123Z,100638.66
2022-09-23T13:27:54.202Z,100639.81
2022-09-23T13:31:06.014Z,100631.34
2022-09-23T13:34:26.190Z,100632.84
2022-09-23T13:37:48.203Z,100627.72
2022-09-23T13:41:00.681Z,100634.03
2022-09-23T13:44:23.192Z,100635.62
2022-09-23T13:47:27.751Z,100631.88
2022-09-23T13:50:45.197Z,100629.47
2022-09-23T13:54:02.208Z,100630.63
2022-09-23T13:57:27.377Z,100635.12
2022-09-23T14:00:49.252Z,100631.66
2022-09-23T14:04:04.217Z,100630.41
2022-09-23T14:07:15.472Z,100630.44
2022-09-23T14:10:28.204Z,100630.44
2022-09-23T14:13:42.896Z,100625.19
2022-09-23T14:16:51.320Z,100619.78
2022-09-23T14:20:06.194Z,100622.78
2022-09-23T14:23:19.305Z,100622.47
2022-09-23T14:26:27.816Z,100608.75
2022-09-23T14:29:40.220Z,100607.34
2022-09-23T14:32:55.242Z,100605.28
2022-09-23T14:36:05.180Z,100602.44
2022-09-23T14:39:22.208Z,100608.25
2022-09-23T14:42:44.222Z,100611.47
2022-09-23T14:45:50.124Z,100600.63
2022-09-23T14:49:17.226Z,100600.97
2022-09-23T14:52:19.066Z,100601.44
2022-09-23T14:55:36.263Z,100601.44
2022-09-23T14:58:54.219Z,100594.62
2022-09-23T15:02:45.242Z,100596.37
2022-09-23T15:06:12.209Z,100591.75
2022-09-23T15:09:28.236Z,100589.97
2022-09-23T15:12:37.339Z,100593.63
2022-09-23T15:15:52.236Z,100594.22
2022-09-23T15:19:07.241Z,100593.03
2022-09-23T15:22:22.239Z,100582.97
2022-09-23T15:25:46.227Z,100583.72
2022-09-23T15:29:02.234Z,100588.00
2022-09-23T15:32:10.685Z,100582.44
2022-09-23T15:35:21.233Z,100574.16
2022-09-23T15:38:29.752Z,100577.72
2022-09-23T15:41:44.235Z,100577.28
2022-09-23T15:44:52.219Z,100573.97
2022-09-23T15:48:05.616Z,100573.66
2022-09-23T15:51:15.221Z,100568.28
2022-09-23T15:54:30.243Z,100571.16
2022-09-23T15:57:45.472Z,100570.38
2022-09-23T16:01:02.471Z,100579.31
2022-09-23T16:04:04.649Z,100572.66
2022-09-23T16:07:19.247Z,100571.72
2022-09-23T16:10:34.229Z,100568.06
2022-09-23T16:13:49.255Z,100568.87
2022-09-23T16:17:04.387Z,100577.78
2022-09-23T16:20:06.533Z,100576.19
2022-09-23T16:23:30.317Z,100576.50
2022-09-23T16:26:38.731Z,100585.75
2022-09-23T16:29:47.274Z,100581.59
2022-09-23T16:33:02.245Z,100575.84
2022-09-23T16:36:05.612Z,100580.75
2022-09-23T16:39:21.258Z,100577.38
2022-09-23T16:42:29.821Z,100581.84
2022-09-23T16:45:38.340Z,100575.00
2022-09-23T16:48:52.310Z,100577.34
2022-09-23T16:52:07.266Z,100581.00
2022-09-23T16:55:18.245Z,100580.03
2022-09-23T16:58:33.453Z,100576.69
2022-09-23T17:01:42.299Z,100583.38
2022-09-23T17:04:50.777Z,100573.34
2022-09-23T17:07:59.266Z,100574.59
2022-09-23T17:11:09.233Z,100576.19
2022-09-23T17:14:24.245Z,100582.16
2022-09-23T17:17:32.243Z,100572.56
2022-09-23T17:20:47.307Z,100561.84
2022-09-23T17:23:56.571Z,100573.22
2022-09-23T17:27:11.261Z,100575.66
2022-09-23T17:30:13.600Z,100581.44
2022-09-23T17:33:28.293Z,100585.28
2022-09-23T17:36:36.860Z,100587.75
2022-09-23T17:39:51.245Z,100583.22
2022-09-23T17:42:53.065Z,100582.06
2022-09-23T17:46:16.320Z,100582.69
2022-09-23T17:49:31.244Z,100581.88
2022-09-23T17:52:33.099Z,100588.09
2022-09-23T17:55:48.244Z,100587.69
2022-09-23T17:59:03.594Z,100597.16
2022-09-23T18:02:15.551Z,100598.75
2022-09-23T18:05:30.270Z,100599.50
2022-09-23T18:08:39.602Z,100593.81
2022-09-23T18:11:51.254Z,100594.50
2022-09-23T18:14:59.818Z,100598.38
2022-09-23T18:18:15.452Z,100597.94
2022-09-23T18:21:17.274Z,100600.38
2022-09-23T18:24:33.469Z,100602.97
2022-09-23T18:27:35.628Z,100608.16
2022-09-23T18:31:03.296Z,100609.22
2022-09-23T18:34:13.868Z,100598.34
2022-09-23T18:37:22.297Z,100605.16
2022-09-23T18:40:30.843Z,100604.81
2022-09-23T18:43:48.308Z,100609.50
2022-09-23T18:46:50.529Z,100613.72
2022-09-23T18:50:05.602Z,100617.41
2022-09-23T18:53:10.580Z,100609.72
2022-09-23T18:56:25.268Z,100615.50
2022-09-23T18:59:49.243Z,100613.53
2022-09-23T19:02:52.112Z,100619.44
2022-09-23T19:06:11.405Z,100610.94
2022-09-23T19:09:24.251Z,100611.53
2022-09-23T19:12:39.269Z,100605.91
2022-09-23T19:15:54.325Z,100615.34
2022-09-23T19:19:03.261Z,100609.97
2022-09-23T19:22:18.275Z,100623.72
2022-09-23T19:25:20.014Z,100618.50
2022-09-23T19:28:35.263Z,100614.75
2022-09-23T19:31:53.352Z,100617.22
2022-09-23T19:34:55.114Z,100616.44
2022-09-23T19:38:13.393Z,100619.47
2022-09-23T19:41:22.307Z,100611.44
2022-09-23T19:44:37.266Z,100602.06
2022-09-23T19:47:52.245Z,100605.59
2022-09-23T19:50:54.028Z,100603.25
2022-09-23T19:54:11.253Z,100607.88
2022-09-23T19:57:33.262Z,100612.16
2022-09-23T20:00:48.287Z,100616.53
2022-09-23T20:03:57.277Z,100614.16
2022-09-23T20:07:12.334Z,100616.59
2022-09-23T20:10:20.947Z,100614.75
2022-09-23T20:13:29.353Z,100603.56
2022-09-23T20:16:37.915Z,100612.94
2022-09-23T20:19:48.255Z,100613.22
2022-09-23T20:23:06.262Z,100615.66
2022-09-23T20:26:14.905Z,100616.81
2022-09-23T20:29:23.276Z,100613.59
2022-09-23T20:32:31.825Z,100609.34
2022-09-23T20:35:42.266Z,100615.78
2022-09-23T20:39:05.307Z,100612.63
2022-09-23T20:42:07.056Z,100612.12
2022-09-23T20:45:22.294Z,100614.31
2022-09-23T20:48:31.103Z,100605.22
2022-09-23T20:51:39.252Z,100606.84
2022-09-23T20:54:47.926Z,100602.56
2022-09-23T20:57:56.259Z,100603.66
2022-09-23T21:01:07.520Z,100605.25
2022-09-23T21:04:16.258Z,100610.37
2022-09-23T21:07:31.282Z,100608.00
2022-09-23T21:10:39.740Z,100605.88
2022-09-23T21:13:55.276Z,100608.06
2022-09-23T21:17:10.296Z,100605.94
2022-09-23T21:20:12.122Z,100607.00
2022-09-23T21:23:36.241Z,100608.06
2022-09-23T21:26:51.274Z,100606.22
2022-09-23T21:29:53.216Z,100607.81
2022-09-23T21:33:11.278Z,100616.66
2022-09-23T21:36:20.080Z,100609.19
2022-09-23T21:39:28.279Z,100609.72
2022-09-23T21:42:43.376Z,100610.78
2022-09-23T21:45:45.182Z,100609.72
2022-09-23T21:49:02.232Z,100617.22
2022-09-23T21:52:10.844Z,100616.16
2022-09-23T21:55:19.250Z,100620.97
2022-09-23T21:58:42.252Z,100613.22
2022-09-23T22:01:54.210Z,100624.72
2022-09-23T22:05:02.265Z,100611.62
2022-09-23T22:08:10.815Z,100621.00
2022-09-23T22:11:21.262Z,100623.69
2022-09-23T22:14:36.249Z,100613.25
2022-09-23T22:17:39.086Z,100620.22
2022-09-23T22:20:57.012Z,100617.78
2022-09-23T22:24:07.451Z,100625.28
2022-09-23T22:27:26.959Z,100614.59
2022-09-23T22:30:41.267Z,100620.50
2022-09-23T22:33:43.019Z,100618.88
2022-09-23T22:36:58.247Z,100619.41
2022-09-23T22:40:07.372Z,100622.66
2022-09-23T22:43:15.754Z,100623.16
2022-09-23T22:46:24.318Z,100621.31
2022-09-23T22:49:39.260Z,100621.31
2022-09-23T22:52:47.270Z,100620.50
2022-09-23T22:55:59.613Z,100622.09
2022-09-23T22:59:21.244Z,100631.19
2022-09-23T23:02:37.242Z,100625.03
2022-09-23T23:05:52.298Z,100623.44
2022-09-23T23:09:09.051Z,100616.75
2022-09-23T23:12:21.266Z,100612.47
2022-09-23T23:15:33.256Z,100605.53
2022-09-23T23:18:43.284Z,100611.41
2022-09-23T23:21:52.249Z,100616.25
2022-09-23T23:25:07.289Z,100625.84
2022-09-23T23:28:16.014Z,100614.62
2022-09-23T23:31:34.344Z,100614.88
2022-09-23T23:34:42.255Z,100608.75
2022-09-23T23:37:50.757Z,100606.87
2022-09-23T23:41:09.246Z,100612.22
2022-09-23T23:44:12.317Z,100607.13
2022-09-23T23:47:27.267Z,100616.22
2022-09-23T23:50:42.245Z,100612.72
2022-09-23T23:53:50.899Z,100618.84
2022-09-23T23:56:59.278Z,100605.78
